Time;durP1;ratioP1;P1;durP2;ratioP2;P2;SDS_P1;SDS_P2;PMS_P1;PMS_P2;Temp;Humidity;BMP_temperature;BMP_pressure;BME280_temperature;BME280_humidity;BME280_pressure;Samples;Min_cycle;Max_cycle;Signal;HPM_P1;HPM_P2
2023/09/22 00:00:03;;;;;;;9.23;6.75;;;19.30;68.00;20.90;99643.00;;;;5034376;28;20880;-77
2023/09/22 00:02:31;;;;;;;8.90;6.32;;;19.30;68.00;20.90;99639.00;;;;5028077;28;20204;-77
2023/09/22 00:04:58;;;;;;;8.88;6.82;;;19.30;68.10;20.90;99647.00;;;;5045580;28;20227;-77
2023/09/22 00:07:25;;;;;;;7.63;6.40;;;19.30;68.20;20.80;99641.00;;;;5028580;28;20203;-77
2023/09/22 00:09:52;;;;;;;7.03;5.53;;;19.30;68.20;20.80;99633.00;;;;5027736;28;20201;-77
2023/09/22 00:12:20;;;;;;;8.38;6.47;;;19.20;68.20;20.90;99642.00;;;;5022429;28;20196;-77
2023/09/22 00:14:47;;;;;;;7.85;7.05;;;19.20;68.20;20.90;99637.00;;;;5030081;28;20231;-77
2023/09/22 00:17:14;;;;;;;7.80;6.43;;;19.20;68.30;20.90;99647.00;;;;5032540;28;20196;-77
2023/09/22 00:19:43;;;;;;;6.68;5.28;;;19.20;68.40;20.80;99646.00;;;;5029534;28;20565;-76
2023/09/22 00:22:10;;;;;;;7.05;5.40;;;19.20;68.30;20.80;99648.00;;;;5031323;28;20208;-77
2023/09/22 00:24:37;;;;;;;5.43;4.28;;;19.30;68.30;20.80;99649.00;;;;5030270;28;20666;-77
2023/09/22 00:27:04;;;;;;;5.10;4.40;;;19.20;68.20;20.80;99650.00;;;;5029687;28;20310;-77
2023/09/22 00:29:31;;;;;;;7.88;4.70;;;19.20;68.20;20.80;99655.00;;;;5031273;28;20200;-77
2023/09/22 00:31:58;;;;;;;7.28;4.55;;;19.20;68.20;20.80;99658.00;;;;5031118;28;22090;-77
2023/09/22 00:34:25;;;;;;;4.45;4.05;;;19.20;68.20;20.80;99660.00;;;;5031445;28;20213;-76
2023/09/22 00:36:56;;;;;;;5.10;4.60;;;19.20;68.20;20.80;99647.00;;;;5031410;28;20650;-76
2023/09/22 00:39:23;;;;;;;6.63;4.32;;;19.20;68.20;20.80;99653.00;;;;5031251;28;20287;-77
2023/09/22 00:41:50;;;;;;;5.90;5.05;;;19.20;68.80;20.80;99653.00;;;;5031106;28;20558;-77
2023/09/22 00:44:17;;;;;;;6.35;5.60;;;19.20;68.20;20.80;99647.00;;;;5030022;28;20197;-77
2023/09/22 00:46:44;;;;;;;7.60;6.45;;;19.20;68.20;20.70;99652.00;;;;5030102;28;20610;-77
2023/09/22 00:49:11;;;;;;;7.90;6.63;;;19.20;68.10;20.70;99653.00;;;;5030214;28;20210;-77
2023/09/22 00:51:38;;;;;;;7.28;6.45;;;19.10;67.90;20.70;99650.00;;;;5030253;28;20677;-77
2023/09/22 00:54:08;;;;;;;8.98;7.40;;;19.10;67.90;20.60;99655.00;;;;5031065;28;20196;-76
2023/09/22 00:56:35;;;;;;;7.78;6.00;;;19.10;67.90;20.60;99657.00;;;;5031202;28;20275;-77
2023/09/22 00:59:02;;;;;;;10.60;7.13;;;19.00;67.70;20.60;99656.00;;;;5029970;28;20196;-77
2023/09/22 01:01:29;;;;;;;8.70;6.82;;;19.00;67.80;20.60;99652.00;;;;5030716;28;20215;-77
2023/09/22 01:03:56;;;;;;;9.45;6.93;;;19.00;67.70;20.60;99670.00;;;;5031527;28;20196;-77
2023/09/22 01:06:23;;;;;;;7.88;6.10;;;19.00;67.70;20.50;99671.00;;;;5029242;28;20271;-77
2023/09/22 01:08:50;;;;;;;11.02;7.50;;;19.00;67.80;20.50;99684.00;;;;5030350;28;20207;-77
2023/09/22 01:11:18;;;;;;;9.75;7.63;;;19.00;67.80;20.50;99691.00;;;;5030884;28;20726;-77
2023/09/22 01:13:45;;;;;;;10.45;7.68;;;18.90;67.80;20.50;99686.00;;;;5027325;28;20203;-77
2023/09/22 01:16:12;;;;;;;11.75;8.40;;;18.90;67.90;20.50;99682.00;;;;5026744;28;20196;-76
2023/09/22 01:18:39;;;;;;;12.20;8.63;;;18.90;67.80;20.50;99674.00;;;;5029310;28;20657;-77
2023/09/22 01:21:06;;;;;;;12.90;9.63;;;18.80;67.70;20.40;99665.00;;;;5028171;28;20590;-77
2023/09/22 01:23:35;;;;;;;14.10;9.68;;;18.80;68.30;20.40;99660.00;;;;5026104;28;20200;-77
2023/09/22 01:26:02;;;;;;;15.68;9.48;;;18.80;67.70;20.40;99651.00;;;;5022095;28;20225;-77
2023/09/22 01:28:29;;;;;;;13.20;10.25;;;18.80;67.70;20.40;99641.00;;;;5028043;28;20597;-77
2023/09/22 01:30:56;;;;;;;12.05;9.43;;;18.80;67.60;20.30;99647.00;;;;5028545;28;20204;-76
2023/09/22 01:33:23;;;;;;;11.43;8.68;;;18.70;67.30;20.30;99657.00;;;;5030037;28;20574;-77
2023/09/22 01:35:50;;;;;;;12.35;9.55;;;18.70;67.30;20.30;99657.00;;;;5029257;28;20243;-77
2023/09/22 01:38:23;;;;;;;13.48;9.55;;;18.70;67.30;20.20;99658.00;;;;5029508;28;20208;-76
2023/09/22 01:40:52;;;;;;;14.05;9.35;;;18.70;67.40;20.20;99666.00;;;;5027534;28;20614;-76
2023/09/22 01:43:19;;;;;;;13.15;9.25;;;18.60;67.40;20.20;99672.00;;;;5028591;28;20650;-76
2023/09/22 01:45:46;;;;;;;13.98;9.10;;;18.60;67.40;20.20;99668.00;;;;5028140;28;20231;-77
2023/09/22 01:48:14;;;;;;;12.40;9.57;;;18.60;67.40;20.10;99669.00;;;;5029383;28;20203;-77
2023/09/22 01:50:42;;;;;;;12.82;10.18;;;18.50;67.30;20.10;99671.00;;;;5026919;28;20200;-77
2023/09/22 01:53:10;;;;;;;15.48;11.10;;;18.50;67.30;20.10;99662.00;;;;5029623;28;20208;-76
2023/09/22 01:55:37;;;;;;;14.98;9.38;;;18.50;67.40;20.10;99666.00;;;;5029268;28;20236;-77
2023/09/22 01:58:07;;;;;;;12.68;9.45;;;18.50;67.40;20.00;99661.00;;;;5026478;28;20227;-76
2023/09/22 02:00:34;;;;;;;15.40;10.07;;;18.40;67.40;20.00;99655.00;;;;5029914;28;20204;-77
2023/09/22 02:03:02;;;;;;;11.70;8.88;;;18.40;67.40;20.00;99659.00;;;;5029628;28;20201;-77
2023/09/22 02:05:29;;;;;;;13.57;9.35;;;18.40;67.40;20.00;99659.00;;;;5031695;28;20215;-77
2023/09/22 02:07:57;;;;;;;11.88;8.77;;;18.40;67.50;20.00;99666.00;;;;5027190;28;20810;-77
2023/09/22 02:10:24;;;;;;;11.23;8.32;;;18.40;67.40;20.00;99661.00;;;;5029911;28;20204;-76
2023/09/22 02:12:51;;;;;;;12.40;8.98;;;18.30;67.30;20.00;99670.00;;;;5028863;28;20677;-77
2023/09/22 02:15:19;;;;;;;10.93;8.48;;;18.30;67.30;19.90;99665.00;;;;5023265;28;20436;-77
2023/09/22 02:17:47;;;;;;;10.50;8.45;;;18.30;67.40;19.90;99662.00;;;;5021387;28;20196;-77
2023/09/22 02:20:22;;;;;;;15.75;9.25;;;18.30;67.30;19.90;99658.00;;;;5027229;28;20199;-77
2023/09/22 02:22:50;;;;;;;10.98;8.65;;;18.30;67.40;19.90;99669.00;;;;5029641;28;20258;-76
2023/09/22 02:25:19;;;;;;;12.18;8.75;;;18.20;67.40;19.90;99671.00;;;;5027962;28;20192;-77
2023/09/22 02:27:48;;;;;;;12.48;9.45;;;18.20;67.50;19.90;99669.00;;;;5025139;28;20235;-77
2023/09/22 02:30:17;;;;;;;11.65;8.80;;;18.20;67.50;19.90;99672.00;;;;5026014;28;20287;-77
2023/09/22 02:32:48;;;;;;;10.73;7.95;;;18.20;67.50;19.80;99664.00;;;;5027284;28;20581;-77
2023/09/22 02:35:16;;;;;;;13.32;8.80;;;18.20;67.40;19.80;99682.00;;;;5027170;28;20669;-77
2023/09/22 02:37:43;;;;;;;11.20;8.68;;;18.20;67.40;19.80;99671.00;;;;5026344;28;20208;-77
2023/09/22 02:40:13;;;;;;;12.70;8.43;;;18.20;67.40;19.80;99663.00;;;;5020343;28;20207;-77
2023/09/22 02:42:41;;;;;;;14.02;8.15;;;18.20;67.50;19.80;99666.00;;;;5027592;28;20696;-76
2023/09/22 02:45:10;;;;;;;15.57;8.95;;;18.10;67.50;19.80;99670.00;;;;5024938;28;20208;-77
2023/09/22 02:47:38;;;;;;;9.00;7.80;;;18.10;67.40;19.80;99673.00;;;;5028413;28;20238;-77
2023/09/22 02:50:10;;;;;;;10.57;7.75;;;18.10;67.50;19.80;99670.00;;;;5028456;28;20652;-77
2023/09/22 02:52:38;;;;;;;10.85;8.40;;;18.10;67.40;19.80;99666.00;;;;5027948;28;20628;-77
2023/09/22 02:55:08;;;;;;;11.13;8.35;;;18.10;67.40;19.80;99671.00;;;;5026713;28;20200;-77
2023/09/22 02:57:35;;;;;;;10.75;7.53;;;18.10;67.60;19.80;99666.00;;;;5028043;28;20239;-76
2023/09/22 03:00:11;;;;;;;11.02;7.85;;;18.10;67.40;19.80;99676.00;;;;5027470;28;20196;-77
2023/09/22 03:02:38;;;;;;;9.07;7.43;;;18.10;67.50;19.70;99666.00;;;;5009129;28;20196;-77
2023/09/22 03:05:09;;;;;;;12.98;8.68;;;18.00;67.30;19.70;99674.00;;;;5028439;28;20196;-76
2023/09/22 03:07:36;;;;;;;11.55;8.23;;;18.00;67.40;19.70;99659.00;;;;5028806;28;20649;-76
2023/09/22 03:10:06;;;;;;;12.13;8.43;;;18.00;67.40;19.70;99663.00;;;;5027964;28;20204;-76
2023/09/22 03:12:34;;;;;;;10.50;7.82;;;18.00;67.50;19.70;99665.00;;;;5027861;28;20601;-77
2023/09/22 03:15:01;;;;;;;11.45;7.10;;;18.00;67.50;19.70;99661.00;;;;5026863;28;20198;-77
2023/09/22 03:17:28;;;;;;;10.82;8.25;;;18.00;67.50;19.70;99655.00;;;;5010597;28;20216;-77
2023/09/22 03:19:57;;;;;;;8.88;6.72;;;18.00;67.60;19.70;99658.00;;;;5023976;28;20203;-77
2023/09/22 03:22:26;;;;;;;12.35;7.22;;;18.00;67.60;19.70;99658.00;;;;5027827;28;20214;-76
2023/09/22 03:24:53;;;;;;;9.80;7.10;;;18.00;67.70;19.70;99657.00;;;;5022289;28;20650;-76
2023/09/22 03:27:20;;;;;;;9.93;7.00;;;18.00;67.60;19.70;99652.00;;;;5027777;28;20220;-77
2023/09/22 03:29:47;;;;;;;10.15;6.32;;;18.00;68.00;19.70;99659.00;;;;5027636;28;20200;-77
2023/09/22 03:32:18;;;;;;;8.43;6.65;;;18.00;67.80;19.70;99654.00;;;;5027810;28;21129;-77
2023/09/22 03:34:47;;;;;;;10.65;6.32;;;18.00;67.80;19.70;99654.00;;;;5027761;28;20714;-77
2023/09/22 03:37:14;;;;;;;7.97;6.28;;;18.00;67.80;19.60;99654.00;;;;5026870;28;20204;-77
2023/09/22 03:39:43;;;;;;;9.48;6.25;;;18.00;67.70;19.60;99654.00;;;;5028119;28;20201;-76
2023/09/22 03:42:13;;;;;;;9.27;6.20;;;18.00;67.70;19.60;99648.00;;;;5028051;28;20199;-76
2023/09/22 03:44:40;;;;;;;8.75;6.13;;;18.00;67.70;19.60;99647.00;;;;5024440;28;20520;-77
2023/09/22 03:47:07;;;;;;;8.23;5.10;;;18.00;67.80;19.70;99654.00;;;;5025790;28;20247;-77
2023/09/22 03:49:34;;;;;;;8.65;6.00;;;18.00;67.80;19.70;99653.00;;;;5030606;28;20219;-76
2023/09/22 03:52:02;;;;;;;7.68;5.55;;;18.00;67.80;19.70;99663.00;;;;5031095;28;20211;-76
2023/09/22 03:54:29;;;;;;;8.45;5.30;;;17.90;67.80;19.70;99661.00;;;;5031891;28;20204;-77
2023/09/22 03:56:57;;;;;;;6.40;4.90;;;18.00;67.80;19.60;99668.00;;;;5026556;28;20298;-76
2023/09/22 03:59:24;;;;;;;7.40;4.40;;;18.00;67.80;19.60;99662.00;;;;5028397;28;20243;-77
2023/09/22 04:01:51;;;;;;;9.18;5.25;;;18.00;67.90;19.60;99661.00;;;;5025039;28;20211;-77
2023/09/22 04:04:18;;;;;;;7.20;5.18;;;18.00;67.80;19.70;99666.00;;;;5029510;28;20258;-76
2023/09/22 04:06:46;;;;;;;10.90;4.53;;;18.00;67.80;19.60;99661.00;;;;5031447;28;20235;-76
2023/09/22 04:09:13;;;;;;;7.97;5.47;;;18.00;67.80;19.70;99666.00;;;;5030715;28;20212;-77
2023/09/22 04:11:40;;;;;;;7.15;5.05;;;18.00;67.90;19.70;99664.00;;;;5031032;28;20674;-76
2023/09/22 04:14:09;;;;;;;6.68;4.45;;;18.00;67.90;19.70;99666.00;;;;5026779;28;20509;-76
2023/09/22 04:16:36;;;;;;;8.07;5.30;;;18.00;67.90;19.70;99665.00;;;;5029487;28;20552;-76
2023/09/22 04:19:03;;;;;;;10.00;5.40;;;18.00;67.90;19.70;99663.00;;;;5029439;28;20246;-76
2023/09/22 04:21:31;;;;;;;8.10;5.43;;;18.00;68.00;19.70;99667.00;;;;5029348;28;20204;-77
2023/09/22 04:23:58;;;;;;;9.30;5.15;;;18.00;68.00;19.60;99662.00;;;;5031902;28;20205;-76
2023/09/22 04:26:29;;;;;;;7.15;4.68;;;18.00;67.90;19.60;99663.00;;;;5031070;28;20597;-77
2023/09/22 04:28:56;;;;;;;9.90;5.38;;;18.00;67.90;19.60;99665.00;;;;5031196;28;20200;-77
2023/09/22 04:31:28;;;;;;;6.20;4.75;;;18.00;67.90;19.60;99668.00;;;;5030652;28;22126;-78
2023/09/22 04:33:55;;;;;;;7.53;4.43;;;18.00;67.90;19.60;99672.00;;;;5029151;28;20266;-77
2023/09/22 04:36:22;;;;;;;7.70;5.32;;;18.00;67.90;19.60;99672.00;;;;5029500;28;20193;-77
2023/09/22 04:38:50;;;;;;;6.93;4.18;;;18.00;67.90;19.60;99675.00;;;;5029843;28;20674;-78
2023/09/22 04:41:19;;;;;;;7.88;4.65;;;18.00;67.90;19.60;99674.00;;;;5029758;28;20253;-76
2023/09/22 04:43:47;;;;;;;9.35;4.53;;;17.90;67.90;19.60;99680.00;;;;5029494;28;20203;-78
2023/09/22 04:46:15;;;;;;;9.20;4.60;;;17.90;68.00;19.60;99677.00;;;;5030340;28;20207;-78
2023/09/22 04:48:46;;;;;;;6.25;4.72;;;17.90;68.00;19.50;99675.00;;;;5031264;28;20204;-78
2023/09/22 04:51:14;;;;;;;8.65;4.50;;;17.90;68.10;19.60;99676.00;;;;5029892;28;20283;-78
2023/09/22 04:53:41;;;;;;;6.90;4.13;;;17.90;68.20;19.60;99687.00;;;;5030344;28;20204;-77
2023/09/22 04:56:09;;;;;;;7.93;4.45;;;17.90;68.20;19.60;99681.00;;;;5030441;28;20283;-78
2023/09/22 04:58:38;;;;;;;7.22;4.35;;;17.90;68.20;19.60;99678.00;;;;5030609;28;20228;-77
2023/09/22 05:01:05;;;;;;;8.13;4.25;;;18.00;68.30;19.60;99675.00;;;;5027177;28;20200;-77
2023/09/22 05:03:34;;;;;;;5.47;3.42;;;18.00;68.20;19.60;99666.00;;;;5029725;28;20491;-77
2023/09/22 05:06:09;;;;;;;7.85;3.75;;;17.90;68.20;19.60;99673.00;;;;5030755;28;20291;-77
2023/09/22 05:08:37;;;;;;;5.53;3.60;;;18.00;68.30;19.60;99682.00;;;;5017374;28;20232;-77
2023/09/22 05:11:06;;;;;;;5.55;3.28;;;18.00;68.20;19.60;99682.00;;;;5029051;28;20204;-77
2023/09/22 05:13:34;;;;;;;5.53;3.90;;;18.00;68.20;19.60;99678.00;;;;5029514;28;20202;-77
2023/09/22 05:16:10;;;;;;;6.15;3.70;;;18.00;68.30;19.60;99680.00;;;;5027366;28;20259;-77
2023/09/22 05:18:37;;;;;;;6.82;3.42;;;18.00;68.30;19.60;99683.00;;;;5025364;28;20203;-76
2023/09/22 05:21:05;;;;;;;6.43;3.88;;;18.00;68.20;19.60;99681.00;;;;5027936;28;20207;-77
2023/09/22 05:23:34;;;;;;;4.50;3.35;;;18.00;68.20;19.60;99678.00;;;;5029829;28;20575;-79
2023/09/22 05:26:06;;;;;;;4.15;3.05;;;18.00;68.20;19.50;99688.00;;;;5030430;28;20207;-76
2023/09/22 05:28:33;;;;;;;4.32;2.97;;;18.00;68.10;19.60;99696.00;;;;5025144;28;20258;-77
2023/09/22 05:31:01;;;;;;;5.97;3.22;;;18.00;68.10;19.60;99697.00;;;;5027575;28;20215;-77
2023/09/22 05:33:29;;;;;;;3.85;2.95;;;17.90;68.10;19.60;99701.00;;;;5025012;28;20242;-77
2023/09/22 05:35:56;;;;;;;4.30;3.20;;;18.00;68.20;19.50;99693.00;;;;5026086;28;20283;-78
2023/09/22 05:38:24;;;;;;;3.40;2.70;;;18.00;68.20;19.50;99699.00;;;;5028320;28;20254;-77
2023/09/22 05:40:51;;;;;;;5.28;3.25;;;17.90;68.20;19.50;99700.00;;;;5036416;28;20732;-78
2023/09/22 05:43:22;;;;;;;7.72;2.95;;;17.90;68.10;19.50;99707.00;;;;5027711;28;20193;-77
2023/09/22 05:45:54;;;;;;;4.72;3.38;;;17.90;68.10;19.40;99708.00;;;;5018618;28;20196;-78
2023/09/22 05:48:21;;;;;;;2.90;2.58;;;17.90;68.10;19.50;99705.00;;;;5031111;28;20279;-77
2023/09/22 05:50:57;;;;;;;4.55;2.67;;;17.90;68.10;19.40;99716.00;;;;5028238;28;20200;-78
2023/09/22 05:53:26;;;;;;;3.97;3.08;;;17.90;68.20;19.50;99706.00;;;;5028284;28;20192;-77
2023/09/22 05:56:06;;;;;;;4.53;2.35;;;17.90;68.10;19.40;99712.00;;;;5024602;28;20196;-78
2023/09/22 05:58:33;;;;;;;4.85;2.83;;;17.90;68.20;19.50;99714.00;;;;5037323;28;20230;-77
2023/09/22 06:01:07;;;;;;;6.80;3.03;;;17.90;68.10;19.40;99715.00;;;;5032900;28;20298;-76
2023/09/22 06:03:36;;;;;;;5.80;3.22;;;17.90;68.00;19.50;99721.00;;;;5027712;28;21022;-77
2023/09/22 06:06:08;;;;;;;3.72;2.88;;;17.90;67.90;19.40;99716.00;;;;5026755;28;20581;-77
2023/09/22 06:08:37;;;;;;;5.00;2.42;;;17.90;68.00;19.40;99728.00;;;;5026167;28;20693;-77
2023/09/22 06:11:04;;;;;;;2.90;2.30;;;17.90;67.90;19.40;99728.00;;;;5028773;28;20208;-78
2023/09/22 06:13:31;;;;;;;3.83;2.60;;;17.80;67.80;19.40;99729.00;;;;5028115;28;20199;-77
2023/09/22 06:15:58;;;;;;;7.60;3.03;;;17.80;67.90;19.40;99731.00;;;;5028576;28;20232;-77
2023/09/22 06:18:25;;;;;;;4.03;1.95;;;17.80;68.00;19.40;99733.00;;;;5029998;28;20204;-77
2023/09/22 06:20:55;;;;;;;3.50;2.40;;;17.80;68.00;19.40;99739.00;;;;5028269;28;20192;-77
2023/09/22 06:23:23;;;;;;;3.90;2.70;;;17.80;68.00;19.40;99740.00;;;;5029262;28;20663;-77
2023/09/22 06:25:51;;;;;;;2.25;1.90;;;17.80;68.00;19.40;99741.00;;;;5028473;28;20283;-77
2023/09/22 06:28:19;;;;;;;2.53;1.58;;;17.80;68.00;19.40;99741.00;;;;5029653;28;20238;-77
2023/09/22 06:30:46;;;;;;;4.55;2.28;;;17.80;68.10;19.40;99740.00;;;;5027939;28;20624;-76
2023/09/22 06:33:14;;;;;;;4.38;2.25;;;17.80;68.20;19.40;99743.00;;;;5026071;28;20287;-75
2023/09/22 06:35:41;;;;;;;5.65;2.13;;;17.80;68.20;19.50;99746.00;;;;5028768;28;20219;-76
2023/09/22 06:38:08;;;;;;;3.45;1.92;;;17.80;68.20;19.50;99743.00;;;;5028591;28;20299;-76
2023/09/22 06:40:36;;;;;;;3.08;1.63;;;17.90;68.20;19.40;99736.00;;;;5028264;28;20215;-76
2023/09/22 06:43:05;;;;;;;2.75;1.65;;;17.80;68.10;19.50;99739.00;;;;5026228;28;20197;-76
2023/09/22 06:45:33;;;;;;;4.22;1.90;;;17.90;68.10;19.50;99749.00;;;;5027177;28;20299;-76
2023/09/22 06:48:00;;;;;;;2.30;1.42;;;17.90;68.20;19.50;99752.00;;;;5028345;28;20232;-76
2023/09/22 06:50:30;;;;;;;2.47;1.70;;;17.90;68.20;19.60;99759.00;;;;5028282;28;20200;-76
2023/09/22 06:52:59;;;;;;;3.25;1.48;;;17.90;68.20;19.60;99765.00;;;;5027802;28;20224;-76
2023/09/22 06:55:26;;;;;;;4.03;1.73;;;17.90;68.10;19.60;99767.00;;;;5026351;28;20207;-77
2023/09/22 06:57:53;;;;;;;2.65;1.38;;;17.90;68.20;19.60;99766.00;;;;5026848;28;20236;-76
2023/09/22 07:00:23;;;;;;;2.92;1.27;;;18.00;68.30;19.60;99766.00;;;;5028885;28;20666;-76
2023/09/22 07:02:50;;;;;;;2.70;1.65;;;18.00;68.10;19.70;99767.00;;;;5026306;28;20240;-75
2023/09/22 07:05:19;;;;;;;3.00;1.98;;;18.00;68.10;19.70;99773.00;;;;5018564;28;20196;-76
2023/09/22 07:07:46;;;;;;;4.40;1.52;;;18.10;68.10;19.70;99776.00;;;;5024378;28;20224;-77
2023/09/22 07:10:14;;;;;;;5.03;1.70;;;18.10;68.10;19.80;99775.00;;;;5025840;28;20227;-77
2023/09/22 07:12:42;;;;;;;3.10;1.33;;;18.10;68.10;19.80;99783.00;;;;5025243;28;20212;-77
2023/09/22 07:15:11;;;;;;;3.08;1.73;;;18.20;68.10;19.90;99783.00;;;;5024823;28;20200;-76
2023/09/22 07:17:42;;;;;;;1.77;1.55;;;18.20;68.10;19.80;99788.00;;;;5027348;28;20223;-76
2023/09/22 07:20:14;;;;;;;3.45;2.00;;;18.20;68.00;19.90;99784.00;;;;5026659;28;20747;-77
2023/09/22 07:22:41;;;;;;;1.88;1.52;;;18.20;67.70;19.90;99783.00;;;;5026100;28;20291;-76
2023/09/22 07:25:09;;;;;;;2.38;1.75;;;18.20;67.60;19.90;99788.00;;;;5025133;28;20204;-75
2023/09/22 07:27:39;;;;;;;3.72;1.38;;;18.30;67.70;19.90;99797.00;;;;5027789;28;20223;-77
2023/09/22 07:30:09;;;;;;;1.92;1.35;;;18.30;67.70;19.90;99799.00;;;;5026592;28;20293;-76
2023/09/22 07:32:39;;;;;;;3.13;1.52;;;18.30;67.60;20.00;99797.00;;;;5027900;28;20654;-76
2023/09/22 07:35:08;;;;;;;2.20;1.58;;;18.30;67.40;20.00;99807.00;;;;5026932;28;20220;-77
2023/09/22 07:37:35;;;;;;;2.42;1.35;;;18.40;67.20;19.90;99806.00;;;;5023039;28;20204;-77
2023/09/22 07:40:08;;;;;;;1.90;1.30;;;18.40;67.00;20.00;99810.00;;;;5015197;28;20204;-77
2023/09/22 07:42:36;;;;;;;2.00;1.40;;;18.40;66.90;20.00;99817.00;;;;5020810;28;20283;-75
2023/09/22 07:45:06;;;;;;;4.35;1.50;;;18.30;66.90;19.90;99805.00;;;;5024133;28;20204;-75
2023/09/22 07:47:34;;;;;;;2.22;1.20;;;18.40;66.90;19.90;99809.00;;;;5023188;28;20217;-76
2023/09/22 07:50:02;;;;;;;1.50;1.40;;;18.40;66.80;19.90;99818.00;;;;5018067;28;20203;-76
2023/09/22 07:52:29;;;;;;;3.47;1.67;;;18.40;66.70;19.90;99817.00;;;;5026568;28;20740;-77
2023/09/22 07:54:57;;;;;;;3.30;1.75;;;18.40;66.70;20.00;99826.00;;;;5026476;28;20246;-76
2023/09/22 07:57:24;;;;;;;2.00;1.80;;;18.40;66.60;20.00;99831.00;;;;5026065;28;20323;-76
2023/09/22 07:59:51;;;;;;;1.73;1.48;;;18.40;66.60;20.00;99825.00;;;;5024021;28;20240;-76
2023/09/22 08:02:18;;;;;;;2.63;2.00;;;18.40;66.80;20.10;99837.00;;;;5027192;28;20211;-76
2023/09/22 08:04:45;;;;;;;2.95;2.40;;;18.50;66.90;20.10;99833.00;;;;5023695;28;20566;-76
2023/09/22 08:07:14;;;;;;;3.47;1.93;;;18.50;66.60;20.10;99844.00;;;;5024774;28;20200;-76
2023/09/22 08:09:41;;;;;;;2.42;2.15;;;18.50;66.60;20.20;99837.00;;;;5025329;28;20447;-75
2023/09/22 08:12:11;;;;;;;2.00;1.90;;;18.60;66.50;20.20;99845.00;;;;5021751;28;20192;-76
2023/09/22 08:14:38;;;;;;;3.28;2.20;;;18.60;66.50;20.30;99848.00;;;;5020188;28;20650;-75
2023/09/22 08:17:06;;;;;;;4.60;2.45;;;18.60;66.30;20.30;99850.00;;;;5023631;28;20197;-75
2023/09/22 08:19:33;;;;;;;3.13;1.55;;;18.70;66.30;20.40;99860.00;;;;5022323;28;20600;-75
2023/09/22 08:22:00;;;;;;;2.47;1.90;;;18.70;66.40;20.40;99865.00;;;;5018920;28;20209;-75
2023/09/22 08:24:30;;;;;;;2.58;1.77;;;18.80;66.30;20.40;99858.00;;;;5019383;28;20197;-75
2023/09/22 08:26:59;;;;;;;3.17;2.05;;;18.80;66.20;20.50;99869.00;;;;5020894;28;20189;-75
2023/09/22 08:29:26;;;;;;;1.70;1.60;;;18.90;65.90;20.50;99878.00;;;;5024043;28;20644;-76
2023/09/22 08:31:54;;;;;;;2.15;1.70;;;18.80;65.60;20.40;99870.00;;;;5023994;28;20201;-75
2023/09/22 08:34:21;;;;;;;2.38;2.10;;;18.90;65.40;20.40;99872.00;;;;5026478;28;20243;-76
2023/09/22 08:36:48;;;;;;;1.65;1.52;;;18.90;65.10;20.40;99876.00;;;;5019971;28;20204;-75
2023/09/22 08:39:15;;;;;;;2.22;1.63;;;18.90;64.90;20.40;99878.00;;;;5022395;28;20548;-75
2023/09/22 08:41:44;;;;;;;1.83;1.70;;;18.90;65.40;20.40;99881.00;;;;5027050;28;20558;-75
2023/09/22 08:44:11;;;;;;;1.40;1.20;;;18.90;64.80;20.40;99886.00;;;;5031262;28;20291;-75
2023/09/22 08:46:38;;;;;;;1.40;1.25;;;18.90;65.00;20.40;99876.00;;;;5028428;28;20230;-76
2023/09/22 08:49:05;;;;;;;2.60;1.27;;;18.90;65.00;20.40;99868.00;;;;5029370;28;20216;-76
2023/09/22 08:51:33;;;;;;;1.75;1.10;;;18.90;64.80;20.40;99869.00;;;;5027768;28;20219;-76
2023/09/22 08:54:00;;;;;;;1.50;1.15;;;18.80;64.70;20.40;99875.00;;;;5025885;28;20205;-75
2023/09/22 08:56:28;;;;;;;1.13;1.02;;;18.80;64.70;20.40;99870.00;;;;5024421;28;20207;-76
2023/09/22 08:58:56;;;;;;;1.75;1.00;;;18.90;64.80;20.50;99882.00;;;;5029996;28;20235;-76
2023/09/22 09:01:24;;;;;;;2.20;1.25;;;18.90;65.10;20.50;99880.00;;;;5027834;28;20204;-75
2023/09/22 09:03:51;;;;;;;1.92;1.20;;;19.00;65.20;20.60;99894.00;;;;5021954;28;20569;-75
2023/09/22 09:06:20;;;;;;;1.80;1.40;;;19.00;65.00;20.70;99897.00;;;;5024725;28;20250;-75
2023/09/22 09:09:09;;;;;;;1.20;1.10;;;19.10;65.20;20.60;99888.00;;;;5026340;28;20264;-75
2023/09/22 09:11:37;;;;;;;1.77;1.60;;;19.10;64.80;20.90;99891.00;;;;5020154;28;20747;-75
2023/09/22 09:14:27;;;;;;;1.50;1.20;;;19.30;65.20;20.90;99900.00;;;;5028193;28;20192;-75
2023/09/22 09:16:56;;;;;;;1.60;1.27;;;19.40;65.00;21.10;99895.00;;;;5027301;28;20200;-76
2023/09/22 09:24:31;;;;;;;1.15;1.02;;;19.60;64.60;21.20;99896.00;;;;5017463;28;20583;-78
2023/09/22 09:26:58;;;;;;;1.30;1.17;;;19.70;64.50;21.30;99904.00;;;;5018624;28;20341;-78
2023/09/22 09:29:28;;;;;;;1.73;1.15;;;19.70;64.50;21.40;99903.00;;;;5028400;28;20220;-78
2023/09/22 09:32:00;;;;;;;1.10;1.00;;;19.80;64.30;21.50;99894.00;;;;5028951;28;20203;-77
2023/09/22 09:34:39;;;;;;;2.35;1.20;;;19.90;64.70;21.50;99911.00;;;;5028164;28;20194;-77
2023/09/22 09:37:13;;;;;;;2.17;1.27;;;19.90;63.60;21.60;99906.00;;;;5013635;28;20896;-77
2023/09/22 09:39:48;;;;;;;2.20;1.02;;;20.00;64.00;21.70;99914.00;;;;5014040;28;20555;-78
2023/09/22 09:42:19;;;;;;;1.58;1.13;;;20.20;63.70;21.80;99911.00;;;;5027876;28;20716;-78
2023/09/22 09:44:50;;;;;;;2.17;1.27;;;20.20;63.70;21.90;99908.00;;;;5026358;28;20238;-78
2023/09/22 09:47:26;;;;;;;0.95;0.95;;;20.30;64.00;22.00;99917.00;;;;5027501;28;20196;-79
2023/09/22 09:49:56;;;;;;;2.20;1.40;;;20.50;64.20;22.20;99923.00;;;;5028779;28;20231;-78
2023/09/22 09:52:33;;;;;;;3.15;1.20;;;20.60;63.90;22.20;99918.00;;;;5026824;28;20204;-79
2023/09/22 09:55:12;;;;;;;2.25;0.88;;;20.70;63.50;22.30;99918.00;;;;5029373;28;20196;-78
2023/09/22 09:57:42;;;;;;;1.20;1.00;;;20.80;63.10;22.40;99918.00;;;;5024184;28;20581;-79
2023/09/22 10:00:14;;;;;;;2.45;0.80;;;20.80;62.80;22.40;99921.00;;;;5020804;28;20207;-79
2023/09/22 10:02:45;;;;;;;1.55;1.00;;;20.90;62.10;22.40;99923.00;;;;5015306;28;20203;-79
2023/09/22 10:05:16;;;;;;;1.10;0.90;;;20.90;62.10;22.40;99931.00;;;;5021741;28;20197;-79
2023/09/22 10:07:44;;;;;;;2.67;1.30;;;20.90;61.80;22.40;99920.00;;;;5022176;28;20218;-79
2023/09/22 10:10:14;;;;;;;1.30;0.90;;;20.90;61.70;22.40;99929.00;;;;5024202;28;20243;-80
2023/09/22 10:12:42;;;;;;;3.70;1.45;;;20.90;61.70;22.40;99932.00;;;;5024385;28;20200;-79
2023/09/22 10:15:12;;;;;;;1.13;0.80;;;20.90;61.60;22.40;99925.00;;;;5025629;28;20255;-78
2023/09/22 10:17:40;;;;;;;2.83;0.88;;;20.90;61.70;22.40;99927.00;;;;5021869;28;20200;-79
2023/09/22 10:20:11;;;;;;;1.23;0.80;;;20.90;61.60;22.40;99941.00;;;;5023775;28;20220;-80
2023/09/22 10:22:39;;;;;;;1.02;0.70;;;20.90;61.30;22.30;99932.00;;;;5019631;28;20231;-80
2023/09/22 10:25:29;;;;;;;1.38;0.80;;;20.90;61.10;22.20;99922.00;;;;5028632;28;20231;-79
2023/09/22 10:27:58;;;;;;;1.67;0.70;;;20.90;60.40;22.30;99936.00;;;;5014781;28;20196;-79
2023/09/22 10:31:04;;;;;;;1.85;0.50;;;20.80;61.10;22.10;99929.00;;;;5028538;28;20197;-78
2023/09/22 10:33:32;;;;;;;2.58;0.70;;;20.80;60.30;22.30;99916.00;;;;5026684;28;20192;-80
2023/09/22 10:36:00;;;;;;;1.08;0.73;;;20.80;61.10;22.30;99928.00;;;;5021918;28;20220;-80
2023/09/22 10:38:27;;;;;;;0.80;0.50;;;20.80;60.90;22.30;99930.00;;;;5023354;28;20562;-79
2023/09/22 10:41:09;;;;;;;0.93;0.70;;;20.80;61.30;22.30;99923.00;;;;5028056;28;20196;-79
2023/09/22 10:43:57;;;;;;;0.60;0.50;;;20.90;61.00;22.40;99924.00;;;;5023770;28;20201;-79
2023/09/22 10:46:27;;;;;;;2.97;0.70;;;20.90;61.60;22.50;99918.00;;;;5023000;28;20200;-78
2023/09/22 10:48:54;;;;;;;1.02;0.57;;;21.00;61.10;22.60;99916.00;;;;5028257;28;20603;-79
2023/09/22 10:51:22;;;;;;;1.00;0.52;;;21.10;61.10;22.60;99927.00;;;;5026304;28;20287;-79
2023/09/22 10:53:59;;;;;;;0.50;0.40;;;21.10;60.90;22.60;99932.00;;;;5026492;28;20192;-79
2023/09/22 10:56:26;;;;;;;1.30;0.43;;;21.20;60.40;22.70;99926.00;;;;5027323;28;20211;-79
2023/09/22 10:58:54;;;;;;;6.88;0.50;;;21.20;60.70;22.70;99918.00;;;;5027002;28;20896;-78
2023/09/22 11:01:22;;;;;;;1.65;0.40;;;21.30;60.70;22.80;99930.00;;;;5022250;28;20200;-79
2023/09/22 11:03:54;;;;;;;1.55;0.55;;;21.30;60.50;22.80;99924.00;;;;5026825;28;20192;-78